sensor_id;sensor_type;location;lat;lon;timestamp;pressure;altitude;pressure_sealevel;temperature;humidity
10824;BME280;39116;59.332;18.034;2023-10-09T00:00:29;101202.81;;;4.85;100.00
10824;BME280;39116;59.332;18.034;2023-10-09T00:03:08;101196.03;;;4.87;100.00
10824;BME280;39116;59.332;18.034;2023-10-09T00:05:30;101202.75;;;4.84;100.00
10824;BME280;39116;59.332;18.034;2023-10-09T00:08:06;101198.78;;;4.92;100.00
10824;BME280;39116;59.332;18.034;2023-10-09T00:10:31;101198.72;;;4.90;100.00
10824;BME280;39116;59.332;18.034;2023-10-09T00:13:06;101183.50;;;4.75;100.00
10824;BME280;39116;59.332;18.034;2023-10-09T00:15:32;101194.44;;;4.91;100.00
10824;BME280;39116;59.332;18.034;2023-10-09T00:17:55;101190.00;;;4.87;100.00
10824;BME280;39116;59.332;18.034;2023-10-09T00:20:19;101196.25;;;4.93;100.00
10824;BME280;39116;59.332;18.034;2023-10-09T00:22:45;101181.84;;;4.76;100.00
10824;BME280;39116;59.332;18.034;2023-10-09T00:25:08;101182.00;;;4.81;100.00
10824;BME280;39116;59.332;18.034;2023-10-09T00:27:32;101181.94;;;4.79;100.00
10824;BME280;39116;59.332;18.034;2023-10-09T00:29:58;101185.22;;;4.75;100.00
10824;BME280;39116;59.332;18.034;2023-10-09T00:32:20;101130.53;;;4.38;100.00
10824;BME280;39116;59.332;18.034;2023-10-09T00:34:46;101191.16;;;4.72;100.00
10824;BME280;39116;59.332;18.034;2023-10-09T00:37:11;101137.13;;;4.32;100.00
10824;BME280;39116;59.332;18.034;2023-10-09T00:39:36;101182.75;;;4.55;100.00
10824;BME280;39116;59.332;18.034;2023-10-09T00:42:04;101185.44;;;4.58;100.00
10824;BME280;39116;59.332;18.034;2023-10-09T00:44:27;101187.25;;;4.61;100.00
10824;BME280;39116;59.332;18.034;2023-10-09T00:46:59;101178.47;;;4.56;100.00
10824;BME280;39116;59.332;18.034;2023-10-09T00:49:29;101170.19;;;4.42;100.00
10824;BME280;39116;59.332;18.034;2023-10-09T00:51:53;101178.50;;;4.57;100.00
10824;BME280;39116;59.332;18.034;2023-10-09T00:54:17;101145.41;;;4.46;100.00
10824;BME280;39116;59.332;18.034;2023-10-09T00:56:40;101159.47;;;4.54;100.00
10824;BME280;39116;59.332;18.034;2023-10-09T00:59:05;101163.88;;;4.56;100.00
10824;BME280;39116;59.332;18.034;2023-10-09T01:01:34;101161.88;;;4.49;100.00
10824;BME280;39116;59.332;18.034;2023-10-09T01:04:01;101163.41;;;4.44;100.00
10824;BME280;39116;59.332;18.034;2023-10-09T01:06:33;101150.44;;;4.43;100.00
10824;BME280;39116;59.332;18.034;2023-10-09T01:09:03;101154.28;;;4.52;100.00
10824;BME280;39116;59.332;18.034;2023-10-09T01:11:31;101133.47;;;4.48;100.00
10824;BME280;39116;59.332;18.034;2023-10-09T01:13:53;101141.06;;;4.45;100.00
10824;BME280;39116;59.332;18.034;2023-10-09T01:16:22;101136.09;;;4.49;100.00
10824;BME280;39116;59.332;18.034;2023-10-09T01:18:45;101147.06;;;4.44;100.00
10824;BME280;39116;59.332;18.034;2023-10-09T01:21:11;101061.25;;;4.03;100.00
10824;BME280;39116;59.332;18.034;2023-10-09T01:23:35;100977.31;;;3.64;100.00
10824;BME280;39116;59.332;18.034;2023-10-09T01:26:19;101124.00;;;4.48;100.00
10824;BME280;39116;59.332;18.034;2023-10-09T01:28:43;101123.38;;;4.54;100.00
10824;BME280;39116;59.332;18.034;2023-10-09T01:31:05;101117.13;;;4.47;100.00
10824;BME280;39116;59.332;18.034;2023-10-09T01:33:27;101134.22;;;4.45;100.00
10824;BME280;39116;59.332;18.034;2023-10-09T01:35:49;101126.06;;;4.34;100.00
10824;BME280;39116;59.332;18.034;2023-10-09T01:38:12;101112.47;;;4.38;100.00
10824;BME280;39116;59.332;18.034;2023-10-09T01:40:37;101112.41;;;4.37;100.00
10824;BME280;39116;59.332;18.034;2023-10-09T01:42:59;101122.03;;;4.41;100.00
10824;BME280;39116;59.332;18.034;2023-10-09T01:45:24;101120.91;;;4.34;100.00
10824;BME280;39116;59.332;18.034;2023-10-09T01:47:48;101123.38;;;4.31;100.00
10824;BME280;39116;59.332;18.034;2023-10-09T01:50:13;101114.88;;;4.34;100.00
10824;BME280;39116;59.332;18.034;2023-10-09T01:52:40;101121.44;;;4.26;100.00
10824;BME280;39116;59.332;18.034;2023-10-09T01:55:04;101114.06;;;4.35;100.00
10824;BME280;39116;59.332;18.034;2023-10-09T01:57:35;101116.88;;;4.41;100.00
10824;BME280;39116;59.332;18.034;2023-10-09T01:59:59;101112.22;;;4.32;100.00
10824;BME280;39116;59.332;18.034;2023-10-09T02:02:25;100995.38;;;3.66;100.00
10824;BME280;39116;59.332;18.034;2023-10-09T02:04:47;101097.31;;;4.24;100.00
10824;BME280;39116;59.332;18.034;2023-10-09T02:07:08;101102.47;;;4.24;100.00
10824;BME280;39116;59.332;18.034;2023-10-09T02:09:30;101101.56;;;4.23;100.00
10824;BME280;39116;59.332;18.034;2023-10-09T02:11:52;101081.22;;;4.08;100.00
10824;BME280;39116;59.332;18.034;2023-10-09T02:14:16;101092.09;;;4.22;100.00
10824;BME280;39116;59.332;18.034;2023-10-09T02:16:41;101089.38;;;4.19;100.00
10824;BME280;39116;59.332;18.034;2023-10-09T02:19:02;101081.00;;;4.25;100.00
10824;BME280;39116;59.332;18.034;2023-10-09T02:21:28;101094.31;;;4.13;100.00
10824;BME280;39116;59.332;18.034;2023-10-09T02:23:53;101089.88;;;4.10;100.00
10824;BME280;39116;59.332;18.034;2023-10-09T02:26:18;101084.03;;;4.14;100.00
10824;BME280;39116;59.332;18.034;2023-10-09T02:28:45;101091.75;;;4.14;100.00
10824;BME280;39116;59.332;18.034;2023-10-09T02:31:20;101084.16;;;4.17;100.00
10824;BME280;39116;59.332;18.034;2023-10-09T02:33:47;101085.22;;;4.23;100.00
10824;BME280;39116;59.332;18.034;2023-10-09T02:36:09;101074.44;;;4.10;100.00
10824;BME280;39116;59.332;18.034;2023-10-09T02:38:33;101077.72;;;4.06;100.00
10824;BME280;39116;59.332;18.034;2023-10-09T02:40:58;101084.59;;;4.07;100.00
10824;BME280;39116;59.332;18.034;2023-10-09T02:43:40;101078.44;;;4.04;100.00
10824;BME280;39116;59.332;18.034;2023-10-09T02:46:05;101077.59;;;4.03;100.00
10824;BME280;39116;59.332;18.034;2023-10-09T02:48:36;101078.06;;;4.15;100.00
10824;BME280;39116;59.332;18.034;2023-10-09T02:51:02;101071.69;;;4.06;100.00
10824;BME280;39116;59.332;18.034;2023-10-09T02:53:25;101070.78;;;4.05;100.00
10824;BME280;39116;59.332;18.034;2023-10-09T02:55:50;101063.53;;;3.95;100.00
10824;BME280;39116;59.332;18.034;2023-10-09T02:58:32;101068.69;;;3.95;100.00
10824;BME280;39116;59.332;18.034;2023-10-09T03:00:57;101072.56;;;4.06;100.00
10824;BME280;39116;59.332;18.034;2023-10-09T03:03:19;101076.72;;;4.03;100.00
10824;BME280;39116;59.332;18.034;2023-10-09T03:05:42;101075.72;;;3.99;100.00
10824;BME280;39116;59.332;18.034;2023-10-09T03:08:05;101069.72;;;4.00;100.00
10824;BME280;39116;59.332;18.034;2023-10-09T03:10:29;101078.34;;;4.00;100.00
10824;BME280;39116;59.332;18.034;2023-10-09T03:12:54;101066.78;;;3.91;100.00
10824;BME280;39116;59.332;18.034;2023-10-09T03:15:16;101071.19;;;3.93;100.00
10824;BME280;39116;59.332;18.034;2023-10-09T03:17:39;101070.00;;;3.85;100.00
10824;BME280;39116;59.332;18.034;2023-10-09T03:20:04;101072.94;;;3.94;100.00
10824;BME280;39116;59.332;18.034;2023-10-09T03:22:34;101066.69;;;3.88;100.00
10824;BME280;39116;59.332;18.034;2023-10-09T03:24:56;101063.13;;;3.86;100.00
10824;BME280;39116;59.332;18.034;2023-10-09T03:27:18;101083.38;;;3.76;100.00
10824;BME280;39116;59.332;18.034;2023-10-09T03:29:40;101065.47;;;3.79;100.00
10824;BME280;39116;59.332;18.034;2023-10-09T03:32:09;101055.97;;;3.78;100.00
10824;BME280;39116;59.332;18.034;2023-10-09T03:34:32;101061.25;;;3.81;100.00
10824;BME280;39116;59.332;18.034;2023-10-09T03:36:54;101065.78;;;3.87;100.00
10824;BME280;39116;59.332;18.034;2023-10-09T03:39:25;100944.50;;;3.16;100.00
10824;BME280;39116;59.332;18.034;2023-10-09T03:41:55;101020.69;;;3.55;100.00
10824;BME280;39116;59.332;18.034;2023-10-09T03:44:18;101065.03;;;3.90;100.00
10824;BME280;39116;59.332;18.034;2023-10-09T03:46:40;101050.97;;;3.81;100.00
10824;BME280;39116;59.332;18.034;2023-10-09T03:49:04;101058.06;;;3.87;100.00
10824;BME280;39116;59.332;18.034;2023-10-09T03:51:32;101051.91;;;3.83;100.00
10824;BME280;39116;59.332;18.034;2023-10-09T03:53:54;101040.66;;;3.81;100.00
10824;BME280;39116;59.332;18.034;2023-10-09T03:56:18;101040.97;;;3.89;100.00
10824;BME280;39116;59.332;18.034;2023-10-09T03:58:42;101036.81;;;3.93;100.00
10824;BME280;39116;59.332;18.034;2023-10-09T04:01:08;101038.44;;;3.91;100.00
10824;BME280;39116;59.332;18.034;2023-10-09T04:03:37;101033.06;;;3.85;100.00
10824;BME280;39116;59.332;18.034;2023-10-09T04:05:59;101051.59;;;3.76;100.00
10824;BME280;39116;59.332;18.034;2023-10-09T04:08:21;101029.34;;;3.78;100.00
10824;BME280;39116;59.332;18.034;2023-10-09T04:10:49;101038.03;;;3.80;100.00
10824;BME280;39116;59.332;18.034;2023-10-09T04:13:16;101020.56;;;3.73;100.00
10824;BME280;39116;59.332;18.034;2023-10-09T04:15:39;101030.34;;;3.81;100.00
10824;BME280;39116;59.332;18.034;2023-10-09T04:18:03;101024.91;;;3.74;100.00
10824;BME280;39116;59.332;18.034;2023-10-09T04:20:28;101016.69;;;3.82;100.00
10824;BME280;39116;59.332;18.034;2023-10-09T04:23:07;101015.75;;;3.80;100.00
10824;BME280;39116;59.332;18.034;2023-10-09T04:25:32;101018.41;;;3.83;100.00
10824;BME280;39116;59.332;18.034;2023-10-09T04:28:02;101014.91;;;3.81;100.00
10824;BME280;39116;59.332;18.034;2023-10-09T04:30:31;101007.06;;;3.78;100.00
10824;BME280;39116;59.332;18.034;2023-10-09T04:33:00;101009.47;;;3.74;100.00
10824;BME280;39116;59.332;18.034;2023-10-09T04:35:31;101019.13;;;3.79;100.00
10824;BME280;39116;59.332;18.034;2023-10-09T04:37:54;101011.53;;;3.82;100.00
10824;BME280;39116;59.332;18.034;2023-10-09T04:40:25;101011.75;;;3.89;100.00
10824;BME280;39116;59.332;18.034;2023-10-09T04:43:00;101009.75;;;3.81;100.00
10824;BME280;39116;59.332;18.034;2023-10-09T04:45:26;101009.75;;;3.81;100.00
10824;BME280;39116;59.332;18.034;2023-10-09T04:48:04;101014.41;;;3.69;100.00
10824;BME280;39116;59.332;18.034;2023-10-09T04:50:29;101017.69;;;3.65;100.00
10824;BME280;39116;59.332;18.034;2023-10-09T04:53:23;101025.53;;;3.68;100.00
10824;BME280;39116;59.332;18.034;2023-10-09T04:55:45;101009.53;;;3.75;100.00
10824;BME280;39116;59.332;18.034;2023-10-09T04:58:14;101023.97;;;3.72;100.00
10824;BME280;39116;59.332;18.034;2023-10-09T05:00:44;100996.09;;;3.61;100.00
10824;BME280;39116;59.332;18.034;2023-10-09T05:03:24;101001.03;;;3.57;100.00
10824;BME280;39116;59.332;18.034;2023-10-09T05:05:48;101005.53;;;3.61;100.00
10824;BME280;39116;59.332;18.034;2023-10-09T05:08:18;101007.16;;;3.59;100.00
10824;BME280;39116;59.332;18.034;2023-10-09T05:10:41;101002.94;;;3.61;100.00
10824;BME280;39116;59.332;18.034;2023-10-09T05:13:21;100988.06;;;3.54;100.00
10824;BME280;39116;59.332;18.034;2023-10-09T05:16:02;100997.66;;;3.58;100.00
10824;BME280;39116;59.332;18.034;2023-10-09T05:18:25;100983.78;;;3.54;100.00
10824;BME280;39116;59.332;18.034;2023-10-09T05:20:47;101001.03;;;3.57;100.00
10824;BME280;39116;59.332;18.034;2023-10-09T05:23:16;100991.31;;;3.50;100.00
10824;BME280;39116;59.332;18.034;2023-10-09T05:25:47;100982.53;;;3.44;100.00
10824;BME280;39116;59.332;18.034;2023-10-09T05:28:19;100995.97;;;3.58;100.00
10824;BME280;39116;59.332;18.034;2023-10-09T05:30:51;101001.75;;;3.53;100.00
10824;BME280;39116;59.332;18.034;2023-10-09T05:33:23;100998.38;;;3.54;100.00
10824;BME280;39116;59.332;18.034;2023-10-09T05:35:55;100922.72;;;3.08;100.00
10824;BME280;39116;59.332;18.034;2023-10-09T05:38:37;100996.53;;;3.51;100.00
10824;BME280;39116;59.332;18.034;2023-10-09T05:41:06;100998.09;;;3.48;100.00
10824;BME280;39116;59.332;18.034;2023-10-09T05:43:42;100991.22;;;3.47;100.00
10824;BME280;39116;59.332;18.034;2023-10-09T05:46:20;101002.59;;;3.53;100.00
10824;BME280;39116;59.332;18.034;2023-10-09T05:48:55;101000.25;;;3.58;100.00
10824;BME280;39116;59.332;18.034;2023-10-09T05:51:30;100995.03;;;3.56;100.00
10824;BME280;39116;59.332;18.034;2023-10-09T05:54:07;100995.09;;;3.58;100.00
10824;BME280;39116;59.332;18.034;2023-10-09T05:56:46;101006.31;;;3.60;100.00
10824;BME280;39116;59.332;18.034;2023-10-09T05:59:25;101007.38;;;3.65;100.00
10824;BME280;39116;59.332;18.034;2023-10-09T06:02:07;101013.41;;;3.66;100.00
10824;BME280;39116;59.332;18.034;2023-10-09T06:04:43;100886.13;;;2.94;100.00
10824;BME280;39116;59.332;18.034;2023-10-09T06:07:17;100998.97;;;3.69;100.00
10824;BME280;39116;59.332;18.034;2023-10-09T06:09:44;101008.75;;;3.57;100.00
10824;BME280;39116;59.332;18.034;2023-10-09T06:12:12;100998.59;;;3.60;100.00
10824;BME280;39116;59.332;18.034;2023-10-09T06:15:00;100919.59;;;3.15;100.00
10824;BME280;39116;59.332;18.034;2023-10-09T06:17:36;101010.41;;;3.76;100.00
10824;BME280;39116;59.332;18.034;2023-10-09T06:20:10;101020.47;;;3.70;100.00
10824;BME280;39116;59.332;18.034;2023-10-09T06:22:48;101006.25;;;3.79;100.00
10824;BME280;39116;59.332;18.034;2023-10-09T06:25:19;100992.94;;;3.69;100.00
10824;BME280;39116;59.332;18.034;2023-10-09T06:27:47;101016.31;;;3.73;100.00
10824;BME280;39116;59.332;18.034;2023-10-09T06:30:21;101015.28;;;3.91;100.00
10824;BME280;39116;59.332;18.034;2023-10-09T06:32:46;101015.53;;;3.97;100.00
10824;BME280;39116;59.332;18.034;2023-10-09T06:35:11;101013.63;;;3.93;100.00
10824;BME280;39116;59.332;18.034;2023-10-09T06:37:39;101014.59;;;3.95;100.00
10824;BME280;39116;59.332;18.034;2023-10-09T06:40:22;100998.31;;;3.96;100.00
10824;BME280;39116;59.332;18.034;2023-10-09T06:43:01;101021.03;;;4.06;100.00
10824;BME280;39116;59.332;18.034;2023-10-09T06:45:29;101015.75;;;4.03;100.00
10824;BME280;39116;59.332;18.034;2023-10-09T06:48:04;101003.72;;;4.02;100.00
10824;BME280;39116;59.332;18.034;2023-10-09T06:50:30;101017.00;;;4.13;100.00
10824;BME280;39116;59.332;18.034;2023-10-09T06:53:17;101018.00;;;4.16;100.00
10824;BME280;39116;59.332;18.034;2023-10-09T06:55:42;101017.44;;;4.25;100.00
10824;BME280;39116;59.332;18.034;2023-10-09T06:58:10;101019.69;;;4.38;100.00
10824;BME280;39116;59.332;18.034;2023-10-09T07:00:38;101018.03;;;4.40;100.00
10824;BME280;39116;59.332;18.034;2023-10-09T07:03:17;101017.81;;;4.34;100.00
10824;BME280;39116;59.332;18.034;2023-10-09T07:05:44;101017.84;;;4.36;100.00
10824;BME280;39116;59.332;18.034;2023-10-09T07:08:25;101004.75;;;4.52;100.00
10824;BME280;39116;59.332;18.034;2023-10-09T07:10:54;101007.34;;;4.54;100.00
10824;BME280;39116;59.332;18.034;2023-10-09T07:13:34;101006.00;;;4.64;100.00
10824;BME280;39116;59.332;18.034;2023-10-09T07:15:57;101000.19;;;4.69;100.00
10824;BME280;39116;59.332;18.034;2023-10-09T07:18:36;101006.44;;;4.76;100.00
10824;BME280;39116;59.332;18.034;2023-10-09T07:21:13;101008.72;;;4.68;100.00
10824;BME280;39116;59.332;18.034;2023-10-09T07:23:38;100975.72;;;4.58;100.00
10824;BME280;39116;59.332;18.034;2023-10-09T07:26:10;101006.09;;;4.91;100.00
10824;BME280;39116;59.332;18.034;2023-10-09T07:28:43;101001.13;;;4.95;100.00
10824;BME280;39116;59.332;18.034;2023-10-09T07:31:16;101006.50;;;5.02;100.00
10824;BME280;39116;59.332;18.034;2023-10-09T07:33:44;101005.00;;;5.08;100.00
10824;BME280;39116;59.332;18.034;2023-10-09T07:36:26;101004.34;;;5.14;100.00
10824;BME280;39116;59.332;18.034;2023-10-09T07:38:58;101005.06;;;5.10;100.00
10824;BME280;39116;59.332;18.034;2023-10-09T07:41:21;100997.63;;;5.19;100.00
10824;BME280;39116;59.332;18.034;2023-10-09T07:43:59;101005.78;;;5.31;100.00
10824;BME280;39116;59.332;18.034;2023-10-09T07:46:39;100996.91;;;5.23;100.00
10824;BME280;39116;59.332;18.034;2023-10-09T07:49:12;100996.28;;;5.30;100.00
10824;BME280;39116;59.332;18.034;2023-10-09T07:51:36;100991.22;;;5.33;100.00
10824;BME280;39116;59.332;18.034;2023-10-09T07:53:58;100953.16;;;5.02;100.00
10824;BME280;39116;59.332;18.034;2023-10-09T07:56:28;100956.63;;;5.28;100.00
10824;BME280;39116;59.332;18.034;2023-10-09T07:58:58;100998.81;;;5.54;100.00
10824;BME280;39116;59.332;18.034;2023-10-09T08:01:21;100994.63;;;5.58;100.00
10824;BME280;39116;59.332;18.034;2023-10-09T08:03:55;100992.13;;;5.61;100.00
10824;BME280;39116;59.332;18.034;2023-10-09T08:06:25;100991.84;;;5.79;100.00
10824;BME280;39116;59.332;18.034;2023-10-09T08:09:04;100984.03;;;5.78;100.00
10824;BME280;39116;59.332;18.034;2023-10-09T08:11:50;100985.63;;;6.00;100.00
10824;BME280;39116;59.332;18.034;2023-10-09T08:14:30;100974.31;;;5.96;100.00
10824;BME280;39116;59.332;18.034;2023-10-09T08:17:05;100926.44;;;5.80;100.00
10824;BME280;39116;59.332;18.034;2023-10-09T08:19:32;100962.84;;;6.17;100.00
10824;BME280;39116;59.332;18.034;2023-10-09T08:21:54;100959.72;;;6.27;100.00
10824;BME280;39116;59.332;18.034;2023-10-09T08:24:38;100953.94;;;6.36;100.00
10824;BME280;39116;59.332;18.034;2023-10-09T08:27:04;100969.09;;;6.54;100.00
10824;BME280;39116;59.332;18.034;2023-10-09T08:29:43;100923.44;;;6.24;100.00
10824;BME280;39116;59.332;18.034;2023-10-09T08:32:08;100963.88;;;6.52;100.00
10824;BME280;39116;59.332;18.034;2023-10-09T08:34:38;100962.56;;;6.66;100.00
10824;BME280;39116;59.332;18.034;2023-10-09T08:37:14;100959.34;;;6.75;100.00
10824;BME280;39116;59.332;18.034;2023-10-09T08:39:34;100952.97;;;6.62;100.00
10824;BME280;39116;59.332;18.034;2023-10-09T08:41:56;100967.72;;;6.66;100.00
10824;BME280;39116;59.332;18.034;2023-10-09T08:44:21;100965.72;;;6.56;100.00
10824;BME280;39116;59.332;18.034;2023-10-09T08:46:45;100938.16;;;6.58;100.00
10824;BME280;39116;59.332;18.034;2023-10-09T08:49:09;100968.34;;;6.90;100.00
10824;BME280;39116;59.332;18.034;2023-10-09T08:51:32;100968.50;;;6.96;100.00
10824;BME280;39116;59.332;18.034;2023-10-09T08:53:56;100971.19;;;6.99;100.00
10824;BME280;39116;59.332;18.034;2023-10-09T08:56:19;100956.41;;;6.95;100.00
10824;BME280;39116;59.332;18.034;2023-10-09T08:58:43;100964.31;;;7.01;100.00
10824;BME280;39116;59.332;18.034;2023-10-09T09:01:07;100963.66;;;6.76;100.00
10824;BME280;39116;59.332;18.034;2023-10-09T09:03:38;100959.59;;;6.84;100.00
10824;BME280;39116;59.332;18.034;2023-10-09T09:06:01;100956.91;;;6.81;100.00
10824;BME280;39116;59.332;18.034;2023-10-09T09:08:25;100965.00;;;6.94;100.00
10824;BME280;39116;59.332;18.034;2023-10-09T09:10:51;100962.38;;;6.92;100.00
10824;BME280;39116;59.332;18.034;2023-10-09T09:13:18;100971.31;;;7.05;100.00
10824;BME280;39116;59.332;18.034;2023-10-09T09:15:40;100972.63;;;6.89;100.00
10824;BME280;39116;59.332;18.034;2023-10-09T09:18:10;100968.84;;;7.08;100.00
10824;BME280;39116;59.332;18.034;2023-10-09T09:20:43;100956.69;;;7.05;100.00
10824;BME280;39116;59.332;18.034;2023-10-09T09:23:10;100971.50;;;7.11;100.00
10824;BME280;39116;59.332;18.034;2023-10-09T09:25:40;100964.75;;;7.16;100.00
10824;BME280;39116;59.332;18.034;2023-10-09T09:28:05;100962.06;;;7.13;100.00
10824;BME280;39116;59.332;18.034;2023-10-09T09:30:32;100965.88;;;7.28;100.00
10824;BME280;39116;59.332;18.034;2023-10-09T09:32:54;100950.66;;;7.40;100.00
10824;BME280;39116;59.332;18.034;2023-10-09T09:35:31;100949.69;;;7.36;100.00
10824;BME280;39116;59.332;18.034;2023-10-09T09:37:54;100955.44;;;7.24;100.00
10824;BME280;39116;59.332;18.034;2023-10-09T09:40:24;100957.50;;;7.38;100.00
10824;BME280;39116;59.332;18.034;2023-10-09T09:42:55;100949.31;;;7.21;100.00
10824;BME280;39116;59.332;18.034;2023-10-09T09:45:25;100948.88;;;7.39;100.00
10824;BME280;39116;59.332;18.034;2023-10-09T09:47:48;100952.63;;;7.52;100.00
10824;BME280;39116;59.332;18.034;2023-10-09T09:50:16;100954.34;;;7.51;100.00
10824;BME280;39116;59.332;18.034;2023-10-09T09:52:46;100958.63;;;7.49;100.00
10824;BME280;39116;59.332;18.034;2023-10-09T09:55:11;100959.53;;;7.51;100.00
10824;BME280;39116;59.332;18.034;2023-10-09T09:57:39;100956.72;;;7.42;100.00
10824;BME280;39116;59.332;18.034;2023-10-09T10:00:04;100945.59;;;7.46;100.00
10824;BME280;39116;59.332;18.034;2023-10-09T10:02:32;100950.31;;;7.62;100.00
10824;BME280;39116;59.332;18.034;2023-10-09T10:04:58;100951.56;;;7.80;100.00
10824;BME280;39116;59.332;18.034;2023-10-09T10:07:25;100944.03;;;7.53;100.00
10824;BME280;39116;59.332;18.034;2023-10-09T10:09:51;100944.28;;;7.63;100.00
10824;BME280;39116;59.332;18.034;2023-10-09T10:12:48;100938.19;;;7.61;100.00
10824;BME280;39116;59.332;18.034;2023-10-09T10:15:20;100929.22;;;7.47;100.00
10824;BME280;39116;59.332;18.034;2023-10-09T10:18:06;100929.84;;;7.75;100.00
10824;BME280;39116;59.332;18.034;2023-10-09T10:20:29;100931.72;;;7.80;100.00
10824;BME280;39116;59.332;18.034;2023-10-09T10:23:17;100928.50;;;7.91;100.00
10824;BME280;39116;59.332;18.034;2023-10-09T10:25:41;100941.00;;;7.71;100.00
10824;BME280;39116;59.332;18.034;2023-10-09T10:28:18;100927.81;;;7.99;100.00
10824;BME280;39116;59.332;18.034;2023-10-09T10:31:02;100931.25;;;7.98;100.00
10824;BME280;39116;59.332;18.034;2023-10-09T10:34:03;100922.56;;;7.96;100.00
10824;BME280;39116;59.332;18.034;2023-10-09T10:36:27;100927.75;;;7.96;100.00
10824;BME280;39116;59.332;18.034;2023-10-09T10:38:59;100937.31;;;7.99;100.00
10824;BME280;39116;59.332;18.034;2023-10-09T10:41:26;100903.69;;;8.03;100.00
10824;BME280;39116;59.332;18.034;2023-10-09T10:43:59;100917.63;;;8.09;100.00
10824;BME280;39116;59.332;18.034;2023-10-09T10:46:45;100921.47;;;8.26;100.00
10824;BME280;39116;59.332;18.034;2023-10-09T10:49:12;100939.34;;;8.14;100.00
10824;BME280;39116;59.332;18.034;2023-10-09T10:51:41;100921.28;;;8.17;100.00
10824;BME280;39116;59.332;18.034;2023-10-09T10:54:09;100930.59;;;8.09;100.00
10824;BME280;39116;59.332;18.034;2023-10-09T10:56:46;100931.09;;;8.32;100.00
10824;BME280;39116;59.332;18.034;2023-10-09T10:59:12;100839.69;;;7.58;100.00
10824;BME280;39116;59.332;18.034;2023-10-09T11:01:34;100922.53;;;8.37;100.00
10824;BME280;39116;59.332;18.034;2023-10-09T11:04:11;100942.41;;;8.35;99.43
10824;BME280;39116;59.332;18.034;2023-10-09T11:06:33;100926.75;;;8.32;100.00
10824;BME280;39116;59.332;18.034;2023-10-09T11:08:57;100915.63;;;8.38;100.00
10824;BME280;39116;59.332;18.034;2023-10-09T11:11:29;100922.94;;;8.56;98.10
10824;BME280;39116;59.332;18.034;2023-10-09T11:13:54;100927.53;;;8.69;99.02
10824;BME280;39116;59.332;18.034;2023-10-09T11:16:16;100931.59;;;8.56;98.25
10824;BME280;39116;59.332;18.034;2023-10-09T11:18:49;100931.00;;;8.71;96.81
10824;BME280;39116;59.332;18.034;2023-10-09T11:21:14;100932.41;;;8.54;96.05
10824;BME280;39116;59.332;18.034;2023-10-09T11:23:51;100931.97;;;8.76;96.17
10824;BME280;39116;59.332;18.034;2023-10-09T11:26:19;100901.19;;;8.49;95.87
10824;BME280;39116;59.332;18.034;2023-10-09T11:28:46;100925.66;;;8.62;93.48
10824;BME280;39116;59.332;18.034;2023-10-09T11:31:18;100919.94;;;8.37;93.05
10824;BME280;39116;59.332;18.034;2023-10-09T11:33:44;100931.66;;;8.59;93.86
10824;BME280;39116;59.332;18.034;2023-10-09T11:36:06;100940.38;;;8.63;95.69
10824;BME280;39116;59.332;18.034;2023-10-09T11:38:35;100931.91;;;8.73;95.32
10824;BME280;39116;59.332;18.034;2023-10-09T11:40:57;100936.22;;;8.71;97.00
10824;BME280;39116;59.332;18.034;2023-10-09T11:43:46;100937.84;;;8.66;95.21
10824;BME280;39116;59.332;18.034;2023-10-09T11:46:20;100929.38;;;8.76;95.60
10824;BME280;39116;59.332;18.034;2023-10-09T11:49:09;100936.66;;;8.96;94.84
10824;BME280;39116;59.332;18.034;2023-10-09T11:52:08;100942.84;;;9.03;94.33
10824;BME280;39116;59.332;18.034;2023-10-09T11:54:47;100937.59;;;9.00;96.11
10824;BME280;39116;59.332;18.034;2023-10-09T11:57:09;100916.88;;;9.04;95.31
10824;BME280;39116;59.332;18.034;2023-10-09T11:59:32;100940.53;;;9.20;95.48
10824;BME280;39116;59.332;18.034;2023-10-09T12:01:59;100938.94;;;9.28;95.82
10824;BME280;39116;59.332;18.034;2023-10-09T12:04:21;100941.19;;;9.06;98.03
10824;BME280;39116;59.332;18.034;2023-10-09T12:06:50;100932.50;;;9.06;100.00
10824;BME280;39116;59.332;18.034;2023-10-09T12:09:26;100946.34;;;9.05;99.40
10824;BME280;39116;59.332;18.034;2023-10-09T12:11:49;100946.16;;;9.47;97.64
10824;BME280;39116;59.332;18.034;2023-10-09T12:14:13;100945.13;;;9.36;97.38
10824;BME280;39116;59.332;18.034;2023-10-09T12:16:35;100938.91;;;9.26;98.30
10824;BME280;39116;59.332;18.034;2023-10-09T12:19:02;100942.16;;;9.14;100.00
10824;BME280;39116;59.332;18.034;2023-10-09T12:21:29;100930.22;;;9.24;100.00
10824;BME280;39116;59.332;18.034;2023-10-09T12:23:51;100938.94;;;9.28;100.00
10824;BME280;39116;59.332;18.034;2023-10-09T12:26:16;100936.03;;;9.64;100.00
10824;BME280;39116;59.332;18.034;2023-10-09T12:28:37;100935.22;;;9.68;99.63
10824;BME280;39116;59.332;18.034;2023-10-09T12:30:59;100931.81;;;9.71;97.68
10824;BME280;39116;59.332;18.034;2023-10-09T12:33:22;100926.41;;;9.57;92.37
10824;BME280;39116;59.332;18.034;2023-10-09T12:35:49;100937.19;;;9.82;92.35
10824;BME280;39116;59.332;18.034;2023-10-09T12:38:12;100926.94;;;9.96;92.46
10824;BME280;39116;59.332;18.034;2023-10-09T12:40:39;100932.72;;;9.76;92.15
10824;BME280;39116;59.332;18.034;2023-10-09T12:43:10;100929.03;;;9.59;92.78
10824;BME280;39116;59.332;18.034;2023-10-09T12:45:37;100936.53;;;9.40;96.18
10824;BME280;39116;59.332;18.034;2023-10-09T12:47:59;100912.03;;;9.23;100.00